Time;durP1;ratioP1;P1;durP2;ratioP2;P2;SDS_P1;SDS_P2;PMS_P1;PMS_P2;Temp;Humidity;BMP_temperature;BMP_pressure;BME280_temperature;BME280_humidity;BME280_pressure;Samples;Min_cycle;Max_cycle;Signal;HPM_P1;HPM_P2
2022/04/29 00:02:17;;;;;;;11.40;9.18;;;6.60;99.90;;;;;;5098625;28;20052;-84
2022/04/29 00:05:08;;;;;;;13.45;9.30;;;6.60;99.90;;;;;;5077315;28;20391;-84
2022/04/29 00:07:56;;;;;;;13.65;9.77;;;6.60;99.90;;;;;;5094990;28;20055;-83
2022/04/29 00:10:44;;;;;;;11.05;9.23;;;6.60;99.90;;;;;;5073083;28;20052;-83
2022/04/29 00:13:32;;;;;;;12.88;10.05;;;6.40;99.90;;;;;;5096325;28;20097;-84
2022/04/29 00:16:21;;;;;;;12.60;10.10;;;6.30;99.90;;;;;;5078222;28;20094;-84
2022/04/29 00:19:09;;;;;;;12.63;10.02;;;6.20;99.90;;;;;;5078565;28;20055;-84
2022/04/29 00:21:59;;;;;;;14.77;9.52;;;6.20;99.90;;;;;;5090931;28;20139;-84
2022/04/29 00:24:46;;;;;;;14.68;10.52;;;6.20;99.90;;;;;;5105240;28;20051;-85
2022/04/29 00:27:40;;;;;;;14.32;10.13;;;6.20;99.90;;;;;;5109313;28;20373;-85
2022/04/29 00:30:27;;;;;;;14.20;10.57;;;6.00;99.90;;;;;;5075714;28;20055;-84
2022/04/29 00:33:14;;;;;;;16.45;11.07;;;5.90;99.90;;;;;;5073703;28;20075;-84
2022/04/29 00:36:01;;;;;;;16.02;11.48;;;5.90;99.90;;;;;;5085761;28;20373;-84
2022/04/29 00:38:49;;;;;;;24.80;11.55;;;5.80;99.90;;;;;;5073694;28;20044;-83
2022/04/29 00:41:36;;;;;;;13.30;10.77;;;5.90;99.90;;;;;;5094572;28;20044;-84
2022/04/29 00:44:24;;;;;;;16.75;10.95;;;5.80;99.90;;;;;;5092131;28;20062;-82
2022/04/29 00:47:14;;;;;;;16.27;11.25;;;5.80;99.90;;;;;;5057948;28;20128;-83
2022/04/29 00:50:04;;;;;;;13.30;9.95;;;5.90;99.90;;;;;;5071044;28;20036;-84
2022/04/29 00:52:53;;;;;;;15.73;11.05;;;6.00;99.90;;;;;;5082510;28;20059;-84
2022/04/29 00:55:43;;;;;;;18.00;11.52;;;5.90;99.90;;;;;;5091099;28;20048;-83
2022/04/29 00:58:34;;;;;;;17.27;11.25;;;5.80;99.90;;;;;;5089319;28;20116;-83
2022/04/29 01:01:24;;;;;;;15.55;10.98;;;5.70;99.90;;;;;;5086255;28;20059;-84
2022/04/29 01:04:24;;;;;;;16.42;11.27;;;5.60;99.90;;;;;;5092137;28;20066;-85
2022/04/29 01:07:12;;;;;;;17.17;11.55;;;5.60;99.90;;;;;;5086583;28;20064;-84
2022/04/29 01:09:59;;;;;;;17.25;12.10;;;5.50;99.90;;;;;;5092655;28;20059;-83
2022/04/29 01:12:53;;;;;;;18.40;12.55;;;5.40;99.90;;;;;;5104369;28;20122;-84
2022/04/29 01:15:44;;;;;;;17.95;11.55;;;5.40;99.90;;;;;;5085029;28;20066;-84
2022/04/29 01:18:31;;;;;;;19.45;13.20;;;5.30;99.90;;;;;;5083504;28;20043;-84
2022/04/29 01:21:19;;;;;;;17.30;12.18;;;5.30;99.90;;;;;;5077238;28;20150;-86
2022/04/29 01:24:08;;;;;;;21.05;13.48;;;5.20;99.90;;;;;;5078279;28;20048;-83
2022/04/29 01:26:55;;;;;;;17.23;13.18;;;5.40;99.90;;;;;;5093076;28;20048;-82
2022/04/29 01:29:45;;;;;;;19.38;13.27;;;5.40;99.90;;;;;;5078418;28;20063;-84
2022/04/29 01:32:32;;;;;;;17.42;13.10;;;5.30;99.90;;;;;;5092451;28;20177;-85
2022/04/29 01:35:20;;;;;;;22.33;12.88;;;5.30;99.90;;;;;;5076217;28;20045;-84
2022/04/29 01:38:10;;;;;;;18.08;13.05;;;5.20;99.90;;;;;;5085706;28;20184;-83
2022/04/29 01:40:58;;;;;;;17.45;12.85;;;5.10;99.90;;;;;;5091511;28;20052;-84
2022/04/29 01:43:46;;;;;;;26.88;13.00;;;5.10;99.90;;;;;;5072618;28;20139;-84
2022/04/29 01:46:35;;;;;;;18.92;13.00;;;5.10;99.90;;;;;;5093353;28;20048;-83
2022/04/29 01:49:22;;;;;;;23.20;13.52;;;5.10;99.90;;;;;;5076821;28;20062;-84
2022/04/29 01:52:12;;;;;;;18.50;13.43;;;5.00;99.90;;;;;;5077957;28;20048;-83
2022/04/29 01:55:02;;;;;;;14.95;12.05;;;5.00;99.90;;;;;;5074921;28;20044;-84
2022/04/29 01:57:50;;;;;;;16.42;12.18;;;5.00;99.90;;;;;;5073691;28;20102;-85
2022/04/29 02:00:41;;;;;;;20.40;12.77;;;5.00;99.90;;;;;;5087873;28;20063;-85
2022/04/29 02:03:28;;;;;;;21.17;12.80;;;5.00;99.90;;;;;;5089308;28;20059;-85
2022/04/29 02:06:15;;;;;;;17.45;13.25;;;5.10;99.90;;;;;;5090250;28;20044;-85
2022/04/29 02:09:07;;;;;;;16.67;12.07;;;5.10;99.90;;;;;;5090664;28;20361;-85
2022/04/29 02:12:04;;;;;;;14.98;11.77;;;5.10;99.90;;;;;;5080020;28;20044;-84
2022/04/29 02:14:52;;;;;;;15.30;12.75;;;5.00;99.90;;;;;;5090513;28;20044;-85
2022/04/29 02:17:39;;;;;;;17.17;12.02;;;4.90;99.90;;;;;;5091201;28;20044;-85
2022/04/29 02:20:27;;;;;;;18.83;12.95;;;4.90;99.90;;;;;;5071575;28;20044;-84
2022/04/29 02:23:14;;;;;;;17.73;13.40;;;4.90;99.90;;;;;;5076171;28;20153;-85
2022/04/29 02:26:05;;;;;;;21.45;13.85;;;4.70;99.90;;;;;;5080848;28;20044;-84
2022/04/29 02:28:52;;;;;;;19.77;12.98;;;4.70;99.90;;;;;;5094567;28;20157;-85
2022/04/29 02:31:42;;;;;;;20.00;14.27;;;4.70;99.90;;;;;;5082042;28;20067;-84
2022/04/29 02:34:30;;;;;;;17.58;13.35;;;4.60;99.90;;;;;;5092140;28;20059;-84
2022/04/29 02:37:17;;;;;;;18.73;13.60;;;4.60;99.90;;;;;;5095345;28;20512;-84
2022/04/29 02:40:05;;;;;;;17.75;13.57;;;4.80;99.90;;;;;;5098626;28;20117;-85
2022/04/29 02:42:53;;;;;;;19.55;13.70;;;4.90;99.90;;;;;;5082417;28;20048;-85
2022/04/29 02:45:40;;;;;;;18.65;13.85;;;5.00;99.90;;;;;;5076883;28;20455;-85
2022/04/29 02:48:27;;;;;;;17.90;13.55;;;5.00;99.90;;;;;;5076902;28;20128;-85
2022/04/29 02:51:15;;;;;;;17.30;13.32;;;5.00;99.90;;;;;;5094937;28;20102;-85
2022/04/29 02:54:03;;;;;;;19.23;14.60;;;4.90;99.90;;;;;;5097242;28;20177;-85
2022/04/29 02:56:57;;;;;;;21.73;15.45;;;4.80;99.90;;;;;;5076266;28;20040;-84
2022/04/29 02:59:44;;;;;;;19.52;14.25;;;4.80;99.90;;;;;;5090830;28;20483;-85
2022/04/29 03:02:31;;;;;;;24.33;17.75;;;4.70;99.90;;;;;;5084713;28;20181;-85
2022/04/29 03:05:19;;;;;;;26.00;17.13;;;4.60;99.90;;;;;;5093679;28;20148;-85
2022/04/29 03:08:07;;;;;;;24.65;16.98;;;4.50;99.90;;;;;;5076545;28;20047;-85
2022/04/29 03:10:57;;;;;;;22.00;16.23;;;4.50;99.90;;;;;;5105639;28;20113;-86
2022/04/29 03:13:45;;;;;;;23.63;16.75;;;4.40;99.90;;;;;;5108175;28;20044;-84
2022/04/29 03:16:32;;;;;;;27.42;17.13;;;4.30;99.90;;;;;;5083167;28;20052;-85
2022/04/29 03:19:19;;;;;;;23.67;16.92;;;4.20;99.90;;;;;;5064525;28;20044;-85
2022/04/29 03:22:09;;;;;;;22.63;17.02;;;4.30;99.90;;;;;;5080572;28;20122;-85
2022/04/29 03:25:01;;;;;;;23.92;18.05;;;4.20;99.90;;;;;;5080654;28;20070;-85
2022/04/29 03:27:51;;;;;;;26.43;18.43;;;4.20;99.90;;;;;;5095287;28;20044;-84
2022/04/29 03:30:41;;;;;;;25.00;17.85;;;4.30;99.90;;;;;;5080302;28;20051;-85
2022/04/29 03:33:29;;;;;;;23.77;17.20;;;4.20;99.90;;;;;;5095987;28;20090;-85
2022/04/29 03:36:17;;;;;;;24.17;17.45;;;4.10;99.90;;;;;;5094484;28;20119;-85
2022/04/29 03:39:06;;;;;;;22.42;16.35;;;4.20;99.90;;;;;;5078721;28;20040;-84
2022/04/29 03:41:53;;;;;;;29.67;18.83;;;4.20;99.90;;;;;;5080356;28;20133;-85
2022/04/29 03:44:41;;;;;;;25.38;18.25;;;4.30;99.90;;;;;;5080059;28;20566;-85
2022/04/29 03:47:32;;;;;;;24.50;17.00;;;4.20;99.90;;;;;;5091400;28;20506;-85
2022/04/29 03:50:23;;;;;;;22.23;17.10;;;4.10;99.90;;;;;;5078639;28;20040;-85
2022/04/29 03:53:10;;;;;;;29.70;17.67;;;4.20;99.90;;;;;;5092016;28;20480;-85
2022/04/29 03:55:58;;;;;;;28.38;18.35;;;4.20;99.90;;;;;;5088608;28;20070;-85
2022/04/29 03:58:45;;;;;;;25.95;18.33;;;4.10;99.90;;;;;;5092225;28;20051;-84
2022/04/29 04:01:33;;;;;;;24.70;18.33;;;4.10;99.90;;;;;;5079681;28;20044;-85
2022/04/29 04:04:21;;;;;;;27.52;17.50;;;4.20;99.90;;;;;;5067872;28;20111;-85
2022/04/29 04:07:11;;;;;;;24.48;17.83;;;4.30;99.90;;;;;;5087354;28;20044;-84
2022/04/29 04:10:01;;;;;;;21.65;15.65;;;4.30;99.90;;;;;;5073208;28;20604;-85
2022/04/29 04:12:51;;;;;;;30.50;17.83;;;4.30;99.90;;;;;;5094479;28;20048;-85
2022/04/29 04:15:43;;;;;;;29.42;15.43;;;4.30;99.90;;;;;;5074224;28;20066;-85
2022/04/29 04:18:31;;;;;;;25.37;16.13;;;4.30;99.90;;;;;;5095617;28;20040;-86
2022/04/29 04:21:18;;;;;;;29.13;17.50;;;4.20;99.90;;;;;;5094331;28;20520;-84
2022/04/29 04:24:49;;;;;;;29.02;16.45;;;4.20;99.90;;;;;;5100721;28;20090;-85
2022/04/29 04:28:14;;;;;;;25.52;17.45;;;4.10;99.90;;;;;;5077926;28;20104;-84
2022/04/29 04:35:12;;;;;;;25.52;17.23;;;4.30;99.90;;;;;;5086198;28;20032;-82
2022/04/29 04:42:49;;;;;;;23.52;16.13;;;4.50;99.90;;;;;;5022352;28;20455;-82
2022/04/29 04:45:42;;;;;;;24.30;16.48;;;4.70;99.90;;;;;;5017915;28;20077;-84
2022/04/29 05:00:52;;;;;;;39.17;19.13;;;5.30;99.90;;;;;;5041367;28;20036;-84
2022/04/29 05:03:40;;;;;;;42.20;20.55;;;5.60;99.90;;;;;;5097327;28;20040;-84
2022/04/29 05:06:27;;;;;;;36.42;19.63;;;5.50;99.90;;;;;;5100857;28;20087;-85
2022/04/29 05:09:15;;;;;;;36.25;17.98;;;5.50;99.90;;;;;;5059203;28;20045;-83
2022/04/29 05:12:02;;;;;;;29.08;16.70;;;5.70;99.90;;;;;;5086864;28;20044;-82
2022/04/29 05:14:56;;;;;;;27.13;16.02;;;5.80;99.90;;;;;;5099869;28;20071;-83
2022/04/29 05:17:49;;;;;;;21.90;13.95;;;6.00;99.90;;;;;;5089877;28;20429;-83
2022/04/29 05:20:37;;;;;;;22.35;14.20;;;6.20;99.90;;;;;;5102853;28;20136;-84
2022/04/29 05:23:26;;;;;;;21.63;13.05;;;6.40;99.90;;;;;;5122777;27;20058;-84
2022/04/29 05:26:14;;;;;;;16.15;12.05;;;6.60;99.90;;;;;;5107055;28;20070;-85
2022/04/29 05:29:01;;;;;;;18.23;12.52;;;6.80;99.90;;;;;;5113911;28;20047;-85
2022/04/29 05:43:20;;;;;;;22.98;14.68;;;7.20;99.90;;;;;;5108471;28;20403;-83
2022/04/29 05:46:07;;;;;;;25.48;15.02;;;7.40;99.90;;;;;;5096881;28;20074;-83
2022/04/29 05:48:57;;;;;;;25.88;13.13;;;7.60;99.90;;;;;;5107829;28;20072;-82
2022/04/29 05:51:51;;;;;;;20.42;13.35;;;7.70;99.90;;;;;;5114026;28;20096;-83
2022/04/29 05:54:41;;;;;;;20.90;12.73;;;7.90;99.90;;;;;;5104008;28;20044;-82
2022/04/29 05:57:30;;;;;;;25.55;14.02;;;8.10;99.90;;;;;;5120296;28;20036;-82
2022/04/29 06:00:19;;;;;;;22.55;12.68;;;8.30;99.90;;;;;;5095477;28;20044;-81
2022/04/29 06:03:08;;;;;;;15.82;10.70;;;8.60;99.90;;;;;;5086340;28;20047;-82
2022/04/29 06:05:56;;;;;;;16.17;10.77;;;8.90;99.90;;;;;;5098299;28;20068;-82
2022/04/29 06:08:45;;;;;;;14.82;9.57;;;9.20;99.90;;;;;;5103226;28;20461;-82
2022/04/29 06:11:32;;;;;;;36.55;17.60;;;9.50;99.90;;;;;;5097559;28;20047;-83
2022/04/29 06:14:20;;;;;;;32.20;17.40;;;9.70;99.90;;;;;;5094685;28;20090;-84
2022/04/29 06:17:07;;;;;;;20.50;12.32;;;9.80;99.90;;;;;;5086372;28;20059;-85
2022/04/29 06:19:57;;;;;;;14.00;9.95;;;9.90;99.90;;;;;;5107935;27;20036;-83
2022/04/29 06:22:52;;;;;;;15.65;10.20;;;10.00;99.90;;;;;;5076725;28;20090;-85
2022/04/29 06:25:42;;;;;;;15.93;10.13;;;10.30;99.90;;;;;;5086521;28;20473;-85
2022/04/29 06:28:29;;;;;;;12.73;8.80;;;10.40;99.90;;;;;;5072996;28;20051;-84
2022/04/29 06:31:16;;;;;;;13.63;9.13;;;10.70;99.90;;;;;;5089112;28;20032;-85
2022/04/29 06:34:04;;;;;;;13.30;9.10;;;11.10;99.90;;;;;;5077466;28;20047;-83
2022/04/29 06:36:51;;;;;;;14.20;9.30;;;11.40;99.90;;;;;;5081199;28;20047;-84
2022/04/29 06:39:39;;;;;;;10.35;7.82;;;11.70;99.90;;;;;;5083906;28;20044;-86
2022/04/29 06:42:47;;;;;;;13.38;8.85;;;11.90;99.90;;;;;;5092776;28;20056;-85
2022/04/29 06:45:35;;;;;;;15.93;10.25;;;12.20;99.90;;;;;;5065937;28;20377;-85
2022/04/29 06:48:23;;;;;;;18.95;11.38;;;12.50;99.90;;;;;;5083091;28;20460;-83
2022/04/29 06:51:13;;;;;;;17.48;10.82;;;12.90;99.90;;;;;;5069977;28;20040;-85
2022/04/29 06:54:02;;;;;;;18.38;10.63;;;12.90;99.90;;;;;;5082616;28;20150;-84
2022/04/29 06:56:53;;;;;;;15.07;10.32;;;13.10;99.90;;;;;;5089134;28;20104;-84
2022/04/29 06:59:42;;;;;;;16.05;10.90;;;13.30;97.70;;;;;;5106341;28;20052;-84
2022/04/29 07:02:31;;;;;;;12.55;9.80;;;13.50;97.80;;;;;;5076755;28;20052;-84
2022/04/29 07:05:19;;;;;;;12.20;9.63;;;13.40;96.70;;;;;;5093561;28;20418;-85
2022/04/29 07:08:09;;;;;;;14.48;10.45;;;13.20;95.80;;;;;;5107859;28;20059;-86
2022/04/29 07:10:57;;;;;;;17.80;10.70;;;13.10;96.60;;;;;;5116526;28;20047;-85
2022/04/29 07:13:44;;;;;;;13.10;10.23;;;13.20;96.00;;;;;;5096531;28;20043;-85
2022/04/29 07:16:34;;;;;;;13.70;9.38;;;13.50;99.10;;;;;;5079429;28;20101;-85
2022/04/29 07:19:25;;;;;;;18.40;10.23;;;13.90;95.70;;;;;;5092203;28;20037;-86
2022/04/29 07:22:33;;;;;;;13.05;9.02;;;14.00;93.40;;;;;;5096038;28;20491;-86
2022/04/29 07:25:26;;;;;;;11.65;8.45;;;14.30;90.70;;;;;;5105642;28;20052;-87
2022/04/29 07:28:14;;;;;;;15.05;8.95;;;14.60;92.80;;;;;;5093549;28;20964;-85
2022/04/29 07:31:01;;;;;;;9.75;7.78;;;14.80;92.10;;;;;;5077267;28;20433;-87
2022/04/29 07:34:04;;;;;;;12.63;8.35;;;15.30;91.40;;;;;;5097335;28;20062;-86
2022/04/29 07:43:06;;;;;;;11.75;7.55;;;16.20;82.50;;;;;;5101132;28;20040;-85
2022/04/29 07:45:58;;;;;;;28.08;12.30;;;16.60;79.80;;;;;;5089993;28;20063;-84
2022/04/29 07:48:45;;;;;;;11.07;7.93;;;16.80;77.50;;;;;;5090808;28;20356;-85
2022/04/29 07:51:33;;;;;;;13.90;8.35;;;16.30;75.70;;;;;;5092246;28;20326;-84
2022/04/29 07:54:23;;;;;;;12.20;7.75;;;16.30;77.40;;;;;;5080153;28;20052;-84
2022/04/29 07:57:12;;;;;;;13.68;7.00;;;16.10;75.10;;;;;;5088118;28;20130;-83
2022/04/29 07:59:59;;;;;;;10.65;7.13;;;16.40;78.50;;;;;;5077779;28;20433;-85
2022/04/29 08:02:57;;;;;;;12.82;7.15;;;16.70;76.40;;;;;;5093305;28;20048;-84
2022/04/29 08:05:44;;;;;;;10.55;7.47;;;17.20;74.60;;;;;;5078415;28;20043;-84
2022/04/29 08:08:37;;;;;;;10.05;7.03;;;17.40;74.50;;;;;;5095499;28;20051;-84
2022/04/29 08:11:27;;;;;;;14.10;7.80;;;17.90;69.90;;;;;;5100300;28;20630;-83
2022/04/29 08:14:15;;;;;;;11.05;7.00;;;17.90;65.40;;;;;;5092278;28;20346;-85
2022/04/29 08:17:25;;;;;;;10.77;6.97;;;18.20;64.70;;;;;;5095738;28;20098;-83
2022/04/29 08:20:13;;;;;;;10.65;7.05;;;17.30;64.00;;;;;;5090231;28;20048;-83
2022/04/29 08:23:07;;;;;;;10.80;6.43;;;17.10;63.50;;;;;;5081322;28;20040;-84
2022/04/29 08:25:57;;;;;;;11.07;6.55;;;17.20;69.20;;;;;;5094178;28;20369;-83
2022/04/29 08:28:46;;;;;;;12.30;6.53;;;17.30;66.60;;;;;;5094881;28;20131;-85
2022/04/29 08:31:36;;;;;;;11.20;6.25;;;17.30;66.40;;;;;;5095307;28;20036;-83
2022/04/29 08:34:25;;;;;;;10.32;6.68;;;17.60;67.90;;;;;;5114383;27;20116;-84
2022/04/29 08:37:14;;;;;;;7.65;5.55;;;18.50;64.50;;;;;;5090137;28;20063;-84
2022/04/29 08:40:01;;;;;;;9.05;6.30;;;19.50;64.20;;;;;;5091097;28;20169;-83
2022/04/29 08:42:49;;;;;;;9.45;6.00;;;19.90;56.40;;;;;;5090909;28;20051;-84
2022/04/29 08:45:40;;;;;;;8.25;6.00;;;20.20;55.30;;;;;;5089242;28;20383;-86
2022/04/29 08:48:31;;;;;;;11.75;5.60;;;20.80;49.80;;;;;;5093985;28;20059;-86
2022/04/29 08:51:21;;;;;;;8.43;5.13;;;20.80;53.10;;;;;;5071958;28;20047;-85
2022/04/29 08:58:36;;;;;;;6.93;5.50;;;21.70;50.40;;;;;;5097415;28;20542;-84
2022/04/29 09:00:51;;;;;;;9.60;5.28;;;21.30;49.60;;;;;;5088622;28;20051;-85
2022/04/29 09:03:45;;;;;;;6.97;4.97;;;21.00;48.60;;;;;;5075686;28;20090;-86
2022/04/29 09:06:48;;;;;;;10.30;5.80;;;20.90;47.40;;;;;;5080543;28;20044;-89
2022/04/29 09:09:38;;;;;;;6.53;5.25;;;20.50;46.90;;;;;;5093718;28;20350;-88
2022/04/29 09:12:29;;;;;;;6.85;5.18;;;20.90;47.40;;;;;;5108748;27;20036;-87
2022/04/29 09:15:17;;;;;;;7.88;4.80;;;21.20;47.70;;;;;;5091544;28;20072;-87
2022/04/29 09:18:05;;;;;;;6.28;4.78;;;21.80;44.90;;;;;;5079826;28;20437;-86
2022/04/29 09:20:53;;;;;;;7.65;4.53;;;21.90;45.70;;;;;;5071934;28;20051;-86
2022/04/29 09:23:55;;;;;;;6.00;4.43;;;21.90;46.20;;;;;;5078762;28;20044;-87
2022/04/29 09:26:45;;;;;;;7.63;4.78;;;22.30;45.70;;;;;;5089047;28;20040;-86
2022/04/29 09:30:01;;;;;;;7.38;4.80;;;22.30;44.30;;;;;;5082045;28;20097;-86
2022/04/29 09:32:49;;;;;;;6.22;4.43;;;21.90;42.80;;;;;;5091193;28;20082;-82
2022/04/29 09:35:41;;;;;;;7.88;4.57;;;22.00;44.70;;;;;;5090700;28;20116;-83
2022/04/29 09:42:05;;;;;;;8.93;4.65;;;22.20;44.90;;;;;;5091329;28;20173;-83
2022/04/29 09:44:53;;;;;;;7.65;4.30;;;22.40;44.10;;;;;;5091687;28;20036;-87
2022/04/29 09:47:42;;;;;;;10.35;4.65;;;21.40;44.10;;;;;;5091366;28;20078;-85
2022/04/29 09:50:46;;;;;;;12.23;4.90;;;20.60;45.40;;;;;;5105427;28;20044;-87
2022/04/29 09:53:34;;;;;;;8.43;4.63;;;19.60;46.00;;;;;;5086939;28;20058;-84
2022/04/29 09:56:24;;;;;;;6.50;5.18;;;18.90;49.00;;;;;;5090721;28;20144;-83
2022/04/29 09:59:13;;;;;;;9.55;5.18;;;18.50;49.90;;;;;;5088420;28;20491;-84
2022/04/29 10:02:01;;;;;;;4.95;4.07;;;18.70;50.00;;;;;;5077621;28;20032;-84
2022/04/29 10:04:54;;;;;;;6.30;4.20;;;18.70;47.20;;;;;;5074721;28;20036;-85
2022/04/29 10:07:44;;;;;;;6.28;4.82;;;19.00;51.90;;;;;;5090800;28;20355;-85
2022/04/29 10:10:32;;;;;;;7.30;5.32;;;19.40;47.30;;;;;;5093442;28;20133;-86
2022/04/29 10:13:21;;;;;;;6.72;4.35;;;20.00;48.40;;;;;;5096606;28;20405;-86
2022/04/29 10:16:11;;;;;;;5.95;3.88;;;20.40;47.60;;;;;;5098067;28;20036;-85
2022/04/29 10:22:18;;;;;;;5.20;3.55;;;20.80;46.10;;;;;;5088263;28;20060;-86
2022/04/29 10:25:10;;;;;;;7.75;3.90;;;20.90;46.80;;;;;;5083232;28;20051;-86
2022/04/29 10:27:59;;;;;;;5.90;4.53;;;20.90;46.70;;;;;;5079323;28;20072;-85
2022/04/29 10:31:05;;;;;;;5.32;4.05;;;20.60;46.40;;;;;;5074483;28;20082;-85
2022/04/29 10:33:54;;;;;;;10.77;4.53;;;21.10;48.10;;;;;;5084710;28;20430;-86
2022/04/29 10:36:46;;;;;;;6.03;3.85;;;21.70;47.30;;;;;;5091121;28;20338;-86
2022/04/29 10:39:34;;;;;;;6.07;4.50;;;22.60;44.70;;;;;;5092066;28;20041;-84
2022/04/29 10:42:23;;;;;;;6.55;3.75;;;23.10;42.40;;;;;;5077970;28;20426;-87
2022/04/29 10:45:11;;;;;;;5.55;4.10;;;23.50;43.60;;;;;;5089109;28;20083;-87
2022/04/29 10:47:58;;;;;;;9.75;4.15;;;23.00;44.60;;;;;;5088067;28;20041;-85
2022/04/29 10:50:48;;;;;;;7.32;3.78;;;22.90;45.20;;;;;;5073415;28;20134;-86
2022/04/29 10:53:38;;;;;;;4.60;3.85;;;23.20;43.60;;;;;;5098947;28;20048;-85
2022/04/29 10:56:30;;;;;;;5.38;3.60;;;22.70;40.70;;;;;;5107672;28;20481;-86
2022/04/29 10:59:20;;;;;;;6.68;2.78;;;22.70;42.10;;;;;;5091591;28;20048;-87
2022/04/29 11:02:36;;;;;;;5.60;2.92;;;23.10;39.20;;;;;;5099824;28;20044;-90
2022/04/29 11:06:05;;;;;;;6.10;3.35;;;22.00;41.50;;;;;;5104982;28;20125;-89
2022/04/29 11:09:23;;;;;;;4.18;3.28;;;22.10;43.00;;;;;;5092356;28;20050;-88
2022/04/29 11:12:30;;;;;;;4.85;2.75;;;21.80;40.10;;;;;;5107030;28;20039;-88
2022/04/29 11:15:46;;;;;;;4.40;2.72;;;22.30;40.80;;;;;;5109785;28;20048;-89
2022/04/29 11:18:34;;;;;;;4.03;2.83;;;22.80;41.30;;;;;;5106219;28;20036;-91
2022/04/29 11:25:14;;;;;;;4.15;3.08;;;21.40;41.40;;;;;;5098424;28;20699;-89
2022/04/29 11:28:23;;;;;;;5.20;2.70;;;21.50;39.00;;;;;;5074787;28;20122;-90
2022/04/29 11:31:14;;;;;;;3.20;2.38;;;21.90;41.30;;;;;;5080645;28;20396;-90
2022/04/29 11:34:14;;;;;;;4.67;3.10;;;21.90;41.90;;;;;;5085152;28;20059;-89
2022/04/29 11:37:06;;;;;;;6.35;2.60;;;21.30;41.10;;;;;;5084674;28;20054;-87
2022/04/29 11:40:01;;;;;;;7.67;3.03;;;21.40;38.50;;;;;;5089471;28;20135;-88
2022/04/29 11:42:56;;;;;;;5.82;3.78;;;21.30;39.70;;;;;;5086005;28;20284;-86
2022/04/29 11:50:01;;;;;;;3.80;3.33;;;21.30;41.40;;;;;;5110920;28;20031;-91
2022/04/29 12:02:28;;;;;;;4.30;3.20;;;21.20;41.80;;;;;;5045097;28;20041;-90
2022/04/29 12:05:45;;;;;;;4.75;3.65;;;21.30;40.90;;;;;;5065008;28;20048;-90
2022/04/29 12:08:58;;;;;;;4.28;3.40;;;20.80;43.70;;;;;;5098877;28;20036;-89
2022/04/29 12:11:49;;;;;;;6.30;3.10;;;21.10;43.20;;;;;;5093733;28;20062;-88
2022/04/29 12:14:41;;;;;;;7.95;4.10;;;21.10;43.30;;;;;;5086124;28;20457;-89
2022/04/29 12:17:56;;;;;;;6.32;2.80;;;21.40;43.10;;;;;;5093309;28;20040;-87
2022/04/29 12:21:04;;;;;;;7.95;3.15;;;21.50;43.30;;;;;;5105486;28;20064;-89
2022/04/29 12:24:13;;;;;;;6.47;3.45;;;22.10;43.90;;;;;;5109590;28;20048;-88
2022/04/29 12:27:07;;;;;;;8.15;4.40;;;23.20;41.50;;;;;;5113905;27;20048;-88
2022/04/29 12:36:19;;;;;;;7.50;4.07;;;25.30;35.70;;;;;;5098161;28;20044;-89
2022/04/29 12:39:32;;;;;;;;;;;;;;;;;;;;;
2022/04/29 12:42:28;;;;;;;4.50;3.20;;;23.00;39.00;;;;;;5087638;28;20052;-89
2022/04/29 12:45:21;;;;;;;9.30;3.95;;;23.20;40.80;;;;;;5082108;28;20110;-90
2022/04/29 12:49:05;;;;;;;4.93;3.75;;;23.20;38.90;;;;;;5085269;28;20043;-90
2022/04/29 12:57:15;;;;;;;;;;;;;;;;;;;;;
2022/04/29 13:00:36;;;;;;;;;;;;;;;;;;;;;
2022/04/29 13:03:58;;;;;;;6.20;4.20;;;24.70;38.10;;;;;;5102078;28;20071;-91
2022/04/29 13:11:12;;;;;;;6.63;4.07;;;22.70;39.30;;;;;;5096570;28;20044;-88
2022/04/29 13:14:02;;;;;;;5.25;4.43;;;21.50;40.20;;;;;;5100491;28;20051;-88
2022/04/29 13:16:50;;;;;;;8.63;4.72;;;20.70;41.60;;;;;;5084047;28;20055;-85
2022/04/29 13:19:42;;;;;;;8.10;4.68;;;20.20;44.00;;;;;;5112157;28;20036;-88
2022/04/29 13:22:32;;;;;;;8.52;4.47;;;19.70;45.50;;;;;;5095012;28;20081;-84
2022/04/29 13:25:23;;;;;;;5.65;4.65;;;19.80;44.20;;;;;;5106043;28;20079;-90
2022/04/29 13:28:11;;;;;;;7.75;4.93;;;20.00;47.10;;;;;;5102600;28;20043;-90
2022/04/29 13:31:00;;;;;;;6.25;4.78;;;20.30;47.00;;;;;;5089034;28;20036;-88
2022/04/29 13:33:57;;;;;;;9.25;6.10;;;20.30;44.50;;;;;;5089765;28;20112;-91
2022/04/29 13:36:47;;;;;;;6.13;5.07;;;20.10;46.00;;;;;;5113084;28;20075;-90
2022/04/29 13:39:52;;;;;;;6.68;5.00;;;20.10;45.20;;;;;;5093413;28;20036;-89
2022/04/29 13:42:51;;;;;;;;;;;;;;;;;;;;;
2022/04/29 13:46:21;;;;;;;6.70;5.47;;;20.10;45.60;;;;;;5023809;28;20048;-92
2022/04/29 13:55:06;;;;;;;7.93;4.88;;;20.40;45.20;;;;;;4908380;29;20124;-92
2022/04/29 13:57:59;;;;;;;10.75;4.85;;;21.20;44.90;;;;;;4943053;29;20140;-91
2022/04/29 14:01:30;;;;;;;;;;;;;;;;;;;;;
2022/04/29 14:04:44;;;;;;;6.47;5.40;;;21.40;44.00;;;;;;5092673;28;20127;-93
2022/04/29 14:08:38;;;;;;;;;;;;;;;;;;;;;
2022/04/29 14:12:25;;;;;;;5.78;4.70;;;22.70;45.00;;;;;;4910488;29;20050;-92
2022/04/29 14:16:36;;;;;;;7.63;5.07;;;22.70;41.40;;;;;;4877291;29;20129;-91
2022/04/29 14:19:16;;;;;;;7.80;5.75;;;22.90;41.70;;;;;;4867376;29;20135;-90
2022/04/29 14:26:46;;;;;;;;;;;;;;;;;;;;;
2022/04/29 14:30:10;;;;;;;10.30;6.25;;;21.70;43.80;;;;;;4867336;29;20053;-90
2022/04/29 14:33:02;;;;;;;8.20;5.45;;;21.50;43.80;;;;;;4936972;28;20138;-91
2022/04/29 14:35:52;;;;;;;6.53;4.90;;;21.30;44.20;;;;;;5007638;28;20073;-87
2022/04/29 14:38:39;;;;;;;7.72;5.50;;;21.60;43.90;;;;;;5031507;28;21079;-88
2022/04/29 14:41:27;;;;;;;15.07;5.28;;;22.30;42.40;;;;;;5015993;28;20132;-91
2022/04/29 14:44:18;;;;;;;9.10;5.65;;;21.80;42.70;;;;;;5049732;28;20056;-89
2022/04/29 14:47:09;;;;;;;9.35;6.40;;;21.20;43.90;;;;;;5049913;28;20044;-91
2022/04/29 14:50:01;;;;;;;8.55;5.07;;;20.90;44.90;;;;;;5108260;28;20063;-90
2022/04/29 14:53:02;;;;;;;7.30;5.20;;;20.40;45.50;;;;;;5086730;28;20048;-88
2022/04/29 14:55:55;;;;;;;12.48;6.40;;;20.20;45.10;;;;;;5093401;28;20048;-89
2022/04/29 14:58:43;;;;;;;6.85;6.05;;;19.80;46.20;;;;;;5083693;28;20040;-89
2022/04/29 15:01:31;;;;;;;9.10;6.25;;;19.50;46.40;;;;;;5114108;28;20167;-87
2022/04/29 15:04:21;;;;;;;8.20;5.63;;;19.80;48.40;;;;;;5098622;28;20052;-90
2022/04/29 15:07:11;;;;;;;8.32;5.57;;;20.30;46.20;;;;;;5110401;28;20063;-91
2022/04/29 15:16:15;;;;;;;11.48;5.28;;;21.00;47.30;;;;;;5100944;28;20058;-88
2022/04/29 15:19:21;;;;;;;7.85;5.20;;;21.30;40.00;;;;;;5111407;28;20051;-90
2022/04/29 15:22:09;;;;;;;10.48;6.30;;;21.20;43.80;;;;;;5096842;28;20044;-89
2022/04/29 15:24:56;;;;;;;9.25;5.35;;;20.70;43.90;;;;;;5097332;28;20051;-90
2022/04/29 15:27:44;;;;;;;6.18;5.20;;;20.10;43.10;;;;;;5113091;28;20066;-90
2022/04/29 15:30:43;;;;;;;10.13;5.75;;;19.70;45.40;;;;;;5108816;28;20048;-89
2022/04/29 15:33:33;;;;;;;6.43;4.85;;;19.40;46.60;;;;;;5089315;28;20048;-89
2022/04/29 15:36:20;;;;;;;7.60;5.85;;;19.00;46.00;;;;;;5087333;28;20086;-90
2022/04/29 15:39:08;;;;;;;8.02;5.47;;;18.60;46.40;;;;;;5120016;28;20043;-89
2022/04/29 15:41:58;;;;;;;9.00;5.47;;;18.70;50.30;;;;;;5086046;28;20048;-90
2022/04/29 15:44:45;;;;;;;8.30;5.28;;;18.60;50.60;;;;;;5102632;28;20123;-90
2022/04/29 15:47:50;;;;;;;6.38;4.80;;;18.50;49.30;;;;;;5100358;28;20047;-91
2022/04/29 15:50:38;;;;;;;7.15;5.88;;;18.40;49.60;;;;;;5091438;28;20040;-88
2022/04/29 15:53:31;;;;;;;7.57;5.43;;;18.30;48.80;;;;;;5113130;28;20135;-91
2022/04/29 15:56:22;;;;;;;10.38;6.07;;;18.40;49.40;;;;;;5086992;28;20071;-91
2022/04/29 15:59:12;;;;;;;10.80;5.07;;;18.60;51.10;;;;;;5096682;28;20068;-90
2022/04/29 16:01:59;;;;;;;7.88;5.20;;;18.80;49.90;;;;;;5083906;28;20124;-90
2022/04/29 16:04:47;;;;;;;8.55;5.72;;;18.80;49.00;;;;;;5091583;28;20046;-91
2022/04/29 16:07:35;;;;;;;10.70;6.22;;;19.00;47.30;;;;;;5078966;28;20133;-90
2022/04/29 16:10:23;;;;;;;9.45;5.65;;;19.10;48.00;;;;;;5097503;28;20068;-91
2022/04/29 16:13:11;;;;;;;7.75;5.25;;;19.10;46.90;;;;;;5086360;28;20044;-90
2022/04/29 16:15:59;;;;;;;7.80;5.47;;;19.00;48.50;;;;;;5101085;28;20039;-91
2022/04/29 16:21:54;;;;;;;8.15;4.57;;;19.10;44.40;;;;;;5097745;28;20046;-92
2022/04/29 16:27:55;;;;;;;;;;;18.50;45.90;;;;;;5101736;28;20468;-91
2022/04/29 16:31:05;;;;;;;7.10;5.15;;;18.40;48.80;;;;;;5084693;28;19928;-92
2022/04/29 16:34:15;;;;;;;6.10;4.10;;;18.20;47.00;;;;;;5086812;28;20043;-89
2022/04/29 16:37:10;;;;;;;7.20;4.40;;;18.00;48.40;;;;;;5101020;28;20089;-91
2022/04/29 16:39:59;;;;;;;6.72;5.07;;;17.80;47.20;;;;;;5084740;28;20060;-91
2022/04/29 16:42:46;;;;;;;12.75;4.70;;;17.60;49.30;;;;;;5098097;28;20037;-90
2022/04/29 16:45:36;;;;;;;8.80;4.88;;;17.50;49.60;;;;;;5083707;28;20047;-90
2022/04/29 16:48:24;;;;;;;12.65;6.85;;;17.40;50.30;;;;;;5098214;28;20050;-91